Time;durP1;ratioP1;P1;durP2;ratioP2;P2;SDS_P1;SDS_P2;PMS_P1;PMS_P2;Temp;Humidity;BMP_temperature;BMP_pressure;BME280_temperature;BME280_humidity;BME280_pressure;Samples;Min_cycle;Max_cycle;Signal;HPM_P1;HPM_P2
2022/11/13 00:01:28;;;;;;;17.98;12.15;;;24.00;46.40;;;;;;7709596;22;82817;-58
2022/11/13 00:04:47;;;;;;;18.05;12.32;;;24.00;46.40;;;;;;7710507;22;87420;-59
2022/11/13 00:08:07;;;;;;;16.88;11.18;;;24.00;46.40;;;;;;7712533;22;83699;-59
2022/11/13 00:11:26;;;;;;;21.05;13.10;;;24.00;46.40;;;;;;7711648;22;82638;-59
2022/11/13 00:14:45;;;;;;;18.70;12.02;;;24.00;46.40;;;;;;7712389;22;82881;-59
2022/11/13 00:18:04;;;;;;;16.75;12.00;;;24.00;46.40;;;;;;7712078;22;83366;-58
2022/11/13 00:21:23;;;;;;;16.85;11.32;;;23.90;46.40;;;;;;7710732;22;82808;-58
2022/11/13 00:24:42;;;;;;;16.58;11.73;;;24.00;46.50;;;;;;7714441;22;84724;-59
2022/11/13 00:28:01;;;;;;;18.27;11.23;;;24.00;46.40;;;;;;7709978;22;83163;-65
2022/11/13 00:31:19;;;;;;;18.65;11.75;;;24.00;46.40;;;;;;7710668;22;83081;-65
2022/11/13 00:34:39;;;;;;;19.17;11.88;;;24.00;46.40;;;;;;7712658;22;82789;-64
2022/11/13 00:37:58;;;;;;;17.35;11.25;;;24.00;46.40;;;;;;7711710;22;86021;-65
2022/11/13 00:41:17;;;;;;;17.30;11.35;;;24.00;46.40;;;;;;7714900;22;83405;-63
2022/11/13 00:44:36;;;;;;;19.08;11.65;;;24.00;46.40;;;;;;7711398;22;84104;-64
2022/11/13 00:47:55;;;;;;;16.40;11.75;;;24.00;46.40;;;;;;7711598;22;82974;-60
2022/11/13 00:51:14;;;;;;;16.85;11.80;;;24.00;46.50;;;;;;7711688;22;84478;-60
2022/11/13 00:54:33;;;;;;;16.38;11.00;;;24.00;46.50;;;;;;7711057;22;83346;-61
2022/11/13 00:57:51;;;;;;;16.52;10.98;;;24.00;46.50;;;;;;7711092;22;84260;-60
2022/11/13 01:01:11;;;;;;;17.40;11.75;;;24.00;46.60;;;;;;7711052;22;82698;-60
2022/11/13 01:04:30;;;;;;;22.65;12.38;;;24.00;46.60;;;;;;7711880;22;83020;-60
2022/11/13 01:07:48;;;;;;;19.48;12.38;;;24.00;46.60;;;;;;7710033;22;87230;-59
2022/11/13 01:11:08;;;;;;;15.07;10.25;;;24.00;46.60;;;;;;7713454;22;82953;-62
2022/11/13 01:14:27;;;;;;;18.42;11.30;;;24.00;46.50;;;;;;7712461;22;84206;-61
2022/11/13 01:17:46;;;;;;;17.95;11.95;;;24.00;46.60;;;;;;7712393;22;82650;-62
2022/11/13 01:21:05;;;;;;;15.80;10.82;;;23.90;46.50;;;;;;7712197;22;83325;-60
2022/11/13 01:24:23;;;;;;;18.10;11.38;;;24.00;46.50;;;;;;7712791;22;82557;-55
2022/11/13 01:27:42;;;;;;;17.38;11.07;;;23.90;46.40;;;;;;7710861;22;82539;-58
2022/11/13 01:31:01;;;;;;;16.08;11.05;;;24.00;46.50;;;;;;7710696;22;83914;-58
2022/11/13 01:34:20;;;;;;;19.90;12.50;;;23.90;46.40;;;;;;7713832;22;82623;-57
2022/11/13 01:37:40;;;;;;;15.65;11.07;;;23.90;46.40;;;;;;7713616;22;82991;-55
2022/11/13 01:40:59;;;;;;;15.95;10.95;;;23.90;46.30;;;;;;7712272;22;87122;-63
2022/11/13 01:44:18;;;;;;;17.33;11.70;;;23.90;46.40;;;;;;7710371;22;83093;-61
2022/11/13 01:47:37;;;;;;;16.38;11.63;;;23.90;46.60;;;;;;7712704;22;82621;-61
2022/11/13 01:50:55;;;;;;;18.27;11.32;;;23.90;46.60;;;;;;7707617;22;83054;-61
2022/11/13 01:54:14;;;;;;;17.90;10.98;;;23.90;46.60;;;;;;7712324;22;83154;-61
2022/11/13 01:57:33;;;;;;;15.65;10.80;;;23.90;46.60;;;;;;7709586;22;83016;-63
2022/11/13 02:00:52;;;;;;;19.40;11.10;;;23.90;46.60;;;;;;7710687;22;83389;-61
2022/11/13 02:04:11;;;;;;;14.60;10.70;;;23.90;46.50;;;;;;7709621;22;83160;-61
2022/11/13 02:07:30;;;;;;;15.07;10.52;;;23.90;46.60;;;;;;7710401;22;82751;-60
2022/11/13 02:10:49;;;;;;;17.73;11.60;;;23.90;46.50;;;;;;7707029;22;87115;-60
2022/11/13 02:14:09;;;;;;;15.07;10.48;;;23.90;46.50;;;;;;7712648;22;82939;-59
2022/11/13 02:17:28;;;;;;;16.80;11.32;;;23.90;46.50;;;;;;7710025;22;82664;-60
2022/11/13 02:20:47;;;;;;;15.43;10.63;;;23.90;46.50;;;;;;7710943;22;83195;-60
2022/11/13 02:24:06;;;;;;;15.10;10.15;;;23.90;46.50;;;;;;7710503;22;82579;-60
2022/11/13 02:27:25;;;;;;;17.15;11.73;;;23.90;46.60;;;;;;7713262;22;82937;-61
2022/11/13 02:30:44;;;;;;;17.92;11.27;;;23.90;46.60;;;;;;7712821;22;82958;-61
2022/11/13 02:34:03;;;;;;;17.08;11.00;;;23.90;46.60;;;;;;7711440;22;82600;-62
2022/11/13 02:37:22;;;;;;;17.42;10.55;;;23.80;46.60;;;;;;7708269;22;83186;-63
2022/11/13 02:40:41;;;;;;;15.68;11.15;;;23.90;46.70;;;;;;7712887;22;83130;-62
2022/11/13 02:43:59;;;;;;;18.13;11.43;;;23.80;46.80;;;;;;7709015;22;87816;-62
2022/11/13 02:47:19;;;;;;;18.20;11.48;;;23.80;46.70;;;;;;7711720;22;83044;-61
2022/11/13 02:50:38;;;;;;;16.83;11.82;;;23.80;46.70;;;;;;7713383;22;84798;-60
2022/11/13 02:53:56;;;;;;;15.52;11.20;;;23.80;46.60;;;;;;7709731;22;84239;-62
2022/11/13 02:57:16;;;;;;;17.95;11.73;;;23.80;46.50;;;;;;7714124;22;83850;-63
2022/11/13 03:00:35;;;;;;;18.05;11.20;;;23.80;46.50;;;;;;7713231;22;83978;-60
2022/11/13 03:03:54;;;;;;;18.98;12.30;;;23.80;46.50;;;;;;7711987;22;83859;-61
2022/11/13 03:07:12;;;;;;;17.90;11.77;;;23.80;46.80;;;;;;7712595;22;84321;-61
2022/11/13 03:10:32;;;;;;;17.50;11.10;;;23.80;46.40;;;;;;7713269;22;83042;-63
2022/11/13 03:13:51;;;;;;;16.25;11.45;;;23.80;46.50;;;;;;7711892;22;87067;-63
2022/11/13 03:17:10;;;;;;;17.73;11.40;;;23.80;46.50;;;;;;7712819;22;83051;-63
2022/11/13 03:20:29;;;;;;;16.00;11.70;;;23.80;46.40;;;;;;7712207;22;82926;-64
2022/11/13 03:23:48;;;;;;;17.42;11.60;;;23.80;46.60;;;;;;7714123;22;82759;-64
2022/11/13 03:27:06;;;;;;;22.50;13.20;;;23.80;46.60;;;;;;7715492;22;83019;-63
2022/11/13 03:30:25;;;;;;;16.70;11.68;;;23.80;46.70;;;;;;7709493;22;82945;-63
2022/11/13 03:33:44;;;;;;;17.85;12.43;;;23.80;46.70;;;;;;7712406;22;82845;-63
2022/11/13 03:37:03;;;;;;;18.73;12.40;;;23.80;46.70;;;;;;7712920;22;82938;-62
2022/11/13 03:40:22;;;;;;;17.40;11.27;;;23.80;46.60;;;;;;7709613;22;83779;-62
2022/11/13 03:43:41;;;;;;;21.83;12.35;;;23.70;46.60;;;;;;7706521;22;83025;-62
2022/11/13 03:47:00;;;;;;;18.05;12.13;;;23.80;46.60;;;;;;7711050;22;87403;-62
2022/11/13 03:50:19;;;;;;;19.15;13.25;;;23.80;46.60;;;;;;7711556;22;82865;-62
2022/11/13 03:53:38;;;;;;;17.75;12.05;;;23.70;46.50;;;;;;7707987;22;83087;-61
2022/11/13 03:56:57;;;;;;;19.05;13.27;;;23.70;46.40;;;;;;7711082;22;84163;-62
2022/11/13 04:00:16;;;;;;;19.27;13.13;;;23.70;46.40;;;;;;7709463;22;82577;-61
2022/11/13 04:03:35;;;;;;;27.77;14.18;;;23.80;46.40;;;;;;7712461;22;82570;-61
2022/11/13 04:06:54;;;;;;;20.30;13.02;;;23.80;46.30;;;;;;7709867;22;83150;-62
2022/11/13 04:10:13;;;;;;;23.48;14.32;;;23.80;46.30;;;;;;7714978;22;84058;-59
2022/11/13 04:13:32;;;;;;;27.73;14.10;;;23.80;46.30;;;;;;7712646;22;83123;-59
2022/11/13 04:16:51;;;;;;;22.52;14.45;;;23.70;46.20;;;;;;7711538;22;87023;-59
2022/11/13 04:20:10;;;;;;;20.40;13.38;;;23.70;46.20;;;;;;7710944;22;82719;-60
2022/11/13 04:23:29;;;;;;;21.60;13.73;;;23.80;46.20;;;;;;7710915;22;83320;-60
2022/11/13 04:26:48;;;;;;;21.30;13.05;;;23.80;46.10;;;;;;7708746;22;82970;-60
2022/11/13 04:30:07;;;;;;;23.48;13.85;;;23.80;46.20;;;;;;7710822;22;82679;-59
2022/11/13 04:33:26;;;;;;;22.13;13.15;;;23.90;46.30;;;;;;7713040;22;83338;-59
2022/11/13 04:36:45;;;;;;;18.75;12.90;;;23.90;46.40;;;;;;7710477;22;83441;-59
2022/11/13 04:40:04;;;;;;;20.27;13.15;;;23.90;46.50;;;;;;7710329;22;83031;-59
2022/11/13 04:43:23;;;;;;;18.77;12.40;;;24.00;46.60;;;;;;7707880;22;84218;-59
2022/11/13 04:46:42;;;;;;;18.38;12.32;;;24.00;46.60;;;;;;7708097;22;87376;-60
2022/11/13 04:50:02;;;;;;;19.27;12.57;;;24.00;46.70;;;;;;7710587;22;84332;-62
2022/11/13 04:53:20;;;;;;;17.00;11.15;;;24.00;46.90;;;;;;7712774;22;83072;-62
2022/11/13 04:56:39;;;;;;;19.23;12.55;;;24.10;47.00;;;;;;7713624;22;82866;-61
2022/11/13 04:59:58;;;;;;;21.35;12.45;;;24.10;46.90;;;;;;7710515;22;83786;-61
2022/11/13 05:03:17;;;;;;;18.88;11.82;;;24.10;46.90;;;;;;7708912;22;82993;-62
2022/11/13 05:06:36;;;;;;;19.65;11.77;;;24.10;47.10;;;;;;7707657;22;82809;-62
2022/11/13 05:09:55;;;;;;;19.08;12.02;;;24.10;47.10;;;;;;7709168;22;82957;-62
2022/11/13 05:13:14;;;;;;;18.10;11.35;;;24.10;47.00;;;;;;7706643;22;82541;-62
2022/11/13 05:16:33;;;;;;;18.75;11.98;;;24.20;47.30;;;;;;7703300;22;82742;-62
2022/11/13 05:19:52;;;;;;;19.30;12.00;;;24.20;47.40;;;;;;7704629;22;86955;-62
2022/11/13 05:23:11;;;;;;;19.20;11.80;;;24.20;47.50;;;;;;7705403;22;83344;-63
2022/11/13 05:26:31;;;;;;;18.77;11.18;;;24.20;47.30;;;;;;7684800;22;83473;-62
2022/11/13 05:29:49;;;;;;;18.27;12.30;;;24.20;47.30;;;;;;7711037;22;83258;-62
2022/11/13 05:33:09;;;;;;;21.70;12.52;;;24.20;47.30;;;;;;7711758;22;82810;-62
2022/11/13 05:36:28;;;;;;;18.75;12.15;;;24.20;47.40;;;;;;7712991;22;82722;-62
2022/11/13 05:39:47;;;;;;;19.25;11.88;;;24.20;47.30;;;;;;7712666;22;82615;-63
2022/11/13 05:43:06;;;;;;;18.02;12.20;;;24.20;47.20;;;;;;7714225;22;82617;-62
2022/11/13 05:46:25;;;;;;;21.00;13.02;;;24.20;47.10;;;;;;7712971;22;83513;-61
2022/11/13 05:49:44;;;;;;;19.45;12.48;;;24.10;47.10;;;;;;7711334;22;87254;-61
2022/11/13 05:53:03;;;;;;;20.13;12.60;;;24.10;47.20;;;;;;7710583;22;82990;-62
2022/11/13 05:56:22;;;;;;;23.15;12.80;;;24.10;47.40;;;;;;7710746;22;83006;-62
2022/11/13 05:59:41;;;;;;;20.00;12.25;;;24.10;47.60;;;;;;7710562;22;82679;-63
2022/11/13 06:03:00;;;;;;;21.60;13.05;;;24.10;47.50;;;;;;7712091;22;83123;-60
2022/11/13 06:06:19;;;;;;;20.45;12.57;;;24.10;47.30;;;;;;7708419;22;82556;-62
2022/11/13 06:09:38;;;;;;;21.55;13.57;;;24.10;47.50;;;;;;7710249;22;82786;-63
2022/11/13 06:12:57;;;;;;;18.15;12.10;;;24.10;47.30;;;;;;7712820;22;82507;-64
2022/11/13 06:16:16;;;;;;;19.52;12.32;;;24.00;47.40;;;;;;7699524;22;83576;-62
2022/11/13 06:19:35;;;;;;;21.33;13.02;;;24.00;47.40;;;;;;7711265;22;82936;-61
2022/11/13 06:22:53;;;;;;;20.88;12.90;;;24.00;47.40;;;;;;7707459;22;87732;-63
2022/11/13 06:26:13;;;;;;;19.50;12.45;;;23.90;47.20;;;;;;7710565;22;82545;-62
2022/11/13 06:29:32;;;;;;;17.55;11.95;;;23.90;47.30;;;;;;7713190;22;84175;-61
2022/11/13 06:32:51;;;;;;;17.42;11.18;;;23.90;47.30;;;;;;7709825;22;84202;-62
2022/11/13 06:36:10;;;;;;;17.45;11.48;;;23.80;47.30;;;;;;7710504;22;83532;-63
2022/11/13 06:39:29;;;;;;;18.48;11.07;;;23.80;47.30;;;;;;7712060;22;83701;-61
2022/11/13 06:42:48;;;;;;;19.70;11.73;;;23.80;47.50;;;;;;7714916;22;83079;-61
2022/11/13 06:46:07;;;;;;;19.33;11.25;;;23.80;47.20;;;;;;7709529;22;82605;-63
2022/11/13 06:49:26;;;;;;;21.75;10.82;;;23.80;47.30;;;;;;7688521;22;83200;-62
2022/11/13 06:52:45;;;;;;;19.20;10.65;;;23.90;47.50;;;;;;7711607;22;87060;-61
2022/11/13 06:56:05;;;;;;;15.70;9.73;;;23.80;47.50;;;;;;7711397;22;84329;-60
2022/11/13 06:59:23;;;;;;;18.67;10.57;;;23.90;47.70;;;;;;7716644;22;82594;-59
2022/11/13 07:02:42;;;;;;;21.70;11.18;;;23.90;47.70;;;;;;7702711;22;83219;-54
2022/11/13 07:06:02;;;;;;;20.73;10.25;;;23.80;47.40;;;;;;7704458;22;82944;-63
2022/11/13 07:09:21;;;;;;;18.45;10.35;;;23.90;47.30;;;;;;7702816;22;84381;-62
2022/11/13 07:12:40;;;;;;;15.50;9.23;;;23.80;47.40;;;;;;7705420;22;83376;-61
2022/11/13 07:15:59;;;;;;;15.65;10.00;;;23.90;47.70;;;;;;7713637;22;82859;-61
2022/11/13 07:19:18;;;;;;;21.25;10.48;;;23.90;47.70;;;;;;7713489;22;82993;-61
2022/11/13 07:22:37;;;;;;;17.95;9.65;;;23.90;47.50;;;;;;7708631;22;84047;-61
2022/11/13 07:25:56;;;;;;;23.52;9.68;;;23.90;47.50;;;;;;7709766;22;87384;-62
2022/11/13 07:29:15;;;;;;;13.02;8.90;;;23.90;47.60;;;;;;7709699;22;80721;-62
2022/11/13 07:32:34;;;;;;;15.70;8.95;;;23.90;47.80;;;;;;7709600;22;79873;-59
2022/11/13 07:35:54;;;;;;;22.23;9.35;;;24.00;48.00;;;;;;7710169;22;79871;-60
2022/11/13 07:39:13;;;;;;;16.50;10.00;;;24.00;49.00;;;;;;7695444;22;80928;-60
2022/11/13 07:42:31;;;;;;;19.63;9.02;;;24.00;49.40;;;;;;7705966;22;83054;-61
2022/11/13 07:45:53;;;;;;;15.13;10.00;;;24.00;49.70;;;;;;7710365;22;82925;-61
2022/11/13 07:49:12;;;;;;;14.93;10.18;;;24.00;49.40;;;;;;7705016;22;82620;-61
2022/11/13 07:52:31;;;;;;;16.38;9.18;;;24.00;49.30;;;;;;7705264;22;82971;-62
2022/11/13 07:55:50;;;;;;;26.50;10.48;;;24.00;49.50;;;;;;7710516;22;87310;-61
2022/11/13 07:59:10;;;;;;;17.85;9.48;;;24.00;49.60;;;;;;7705614;22;82699;-61
2022/11/13 08:02:29;;;;;;;15.18;9.43;;;24.00;49.40;;;;;;7707873;22;82702;-59
2022/11/13 08:05:47;;;;;;;13.38;9.40;;;24.00;49.50;;;;;;7709328;22;80543;-68
2022/11/13 08:09:06;;;;;;;13.50;9.63;;;24.00;49.50;;;;;;7716569;22;80356;-64
2022/11/13 08:12:25;;;;;;;14.93;9.82;;;24.00;49.60;;;;;;7714328;22;81203;-60
2022/11/13 08:15:45;;;;;;;16.88;10.13;;;24.00;49.50;;;;;;7709772;22;80412;-61
2022/11/13 08:19:03;;;;;;;17.65;10.15;;;24.00;49.50;;;;;;7709797;22;83018;-61
2022/11/13 08:22:22;;;;;;;14.13;9.68;;;24.10;49.30;;;;;;7701005;22;83376;-63
2022/11/13 08:25:42;;;;;;;75.32;38.90;;;24.10;49.40;;;;;;7709073;22;82606;-65
2022/11/13 08:29:00;;;;;;;234.57;115.40;;;24.10;49.00;;;;;;7682530;22;84683;-64
2022/11/13 08:32:21;;;;;;;236.52;114.53;;;24.10;48.90;;;;;;7694540;22;85139;-63
2022/11/13 08:35:40;;;;;;;257.15;122.25;;;24.10;48.80;;;;;;7695127;22;86188;-62
2022/11/13 08:38:59;;;;;;;272.55;131.25;;;24.10;48.70;;;;;;7689003;22;85401;-63
2022/11/13 08:42:18;;;;;;;287.67;144.40;;;24.10;48.40;;;;;;7694916;22;85632;-62
2022/11/13 08:45:37;;;;;;;347.80;170.65;;;24.10;48.30;;;;;;7693648;22;85074;-62
2022/11/13 08:48:55;;;;;;;338.13;177.02;;;24.00;48.10;;;;;;7699068;22;85438;-62
2022/11/13 08:52:15;;;;;;;360.88;184.52;;;24.00;48.10;;;;;;7689701;22;86315;-61
2022/11/13 08:55:34;;;;;;;324.38;168.15;;;24.00;48.20;;;;;;7704285;22;85039;-62
2022/11/13 08:58:53;;;;;;;296.88;146.63;;;24.00;48.30;;;;;;7698728;22;89577;-62
2022/11/13 09:02:12;;;;;;;320.13;160.63;;;24.00;48.20;;;;;;7707691;22;85320;-63
2022/11/13 09:05:32;;;;;;;339.42;178.43;;;24.00;47.70;;;;;;7700820;22;85577;-63
2022/11/13 09:08:51;;;;;;;361.85;187.27;;;24.00;48.10;;;;;;7702288;22;85905;-63
2022/11/13 09:12:09;;;;;;;347.50;178.88;;;24.10;48.30;;;;;;7696558;22;85760;-60
2022/11/13 09:15:29;;;;;;;318.15;155.30;;;24.10;48.60;;;;;;7696866;22;86817;-61
2022/11/13 09:18:48;;;;;;;271.90;142.18;;;24.00;48.40;;;;;;7692790;22;85682;-62
2022/11/13 09:22:06;;;;;;;256.15;132.85;;;24.10;48.30;;;;;;7709989;22;85514;-61
2022/11/13 09:25:25;;;;;;;243.27;126.18;;;24.10;48.40;;;;;;7706963;22;85400;-63
2022/11/13 09:28:44;;;;;;;209.18;109.75;;;24.10;48.40;;;;;;7707532;22;90198;-64
2022/11/13 09:32:04;;;;;;;208.05;108.88;;;24.10;48.30;;;;;;7707673;22;85546;-62
2022/11/13 09:35:35;;;;;;;193.48;100.30;;;24.10;48.30;;;;;;7682913;22;86405;-62
2022/11/13 09:38:54;;;;;;;169.65;89.88;;;24.10;48.20;;;;;;7698421;22;85718;-63
2022/11/13 09:42:13;;;;;;;180.30;91.72;;;24.10;48.30;;;;;;7699995;22;85607;-61
2022/11/13 09:45:32;;;;;;;162.45;83.95;;;24.20;48.20;;;;;;7706037;22;82902;-64
2022/11/13 09:48:51;;;;;;;159.18;81.57;;;24.10;48.20;;;;;;7708962;22;82906;-63
2022/11/13 09:52:10;;;;;;;135.88;73.30;;;24.20;48.20;;;;;;7711480;22;82821;-61
2022/11/13 09:58:54;;;;;;;123.10;67.25;;;24.20;48.30;;;;;;7706470;22;87211;-61
2022/11/13 10:02:14;;;;;;;118.85;62.67;;;24.20;48.10;;;;;;7706564;22;84580;-60
2022/11/13 10:05:33;;;;;;;115.20;61.30;;;24.20;48.30;;;;;;7714173;22;84830;-62
2022/11/13 10:08:52;;;;;;;113.72;59.78;;;24.20;48.30;;;;;;7711191;22;83829;-67
2022/11/13 10:12:12;;;;;;;109.35;58.72;;;24.20;48.30;;;;;;7707920;22;83502;-64
2022/11/13 10:15:31;;;;;;;101.63;54.03;;;24.20;48.60;;;;;;7704115;22;83484;-61
2022/11/13 10:18:50;;;;;;;105.90;58.88;;;24.30;49.00;;;;;;7709010;22;83729;-64
2022/11/13 10:22:10;;;;;;;102.63;54.70;;;24.30;49.10;;;;;;7707691;22;83960;-62
2022/11/13 10:25:29;;;;;;;101.70;54.10;;;24.30;49.00;;;;;;7708643;22;82896;-61
2022/11/13 10:28:48;;;;;;;95.65;51.83;;;24.20;48.80;;;;;;7709297;22;87293;-63
2022/11/13 10:32:07;;;;;;;92.55;48.92;;;24.20;48.60;;;;;;7711168;22;83831;-60
2022/11/13 10:35:26;;;;;;;84.13;45.75;;;24.20;48.50;;;;;;7707788;22;82721;-54
2022/11/13 10:38:45;;;;;;;77.60;43.22;;;24.20;48.80;;;;;;7705711;22;83056;-53
2022/11/13 10:42:04;;;;;;;78.53;42.15;;;24.20;48.80;;;;;;7681886;22;83651;-54
2022/11/13 10:45:23;;;;;;;77.63;43.10;;;24.20;48.80;;;;;;7700567;22;84454;-54
2022/11/13 10:48:42;;;;;;;74.05;41.47;;;24.20;48.90;;;;;;7696186;22;83685;-54
2022/11/13 10:52:01;;;;;;;74.03;40.20;;;24.30;49.40;;;;;;7692650;22;83656;-55
2022/11/13 10:55:20;;;;;;;76.55;41.13;;;24.20;49.90;;;;;;7697355;22;84374;-56
2022/11/13 10:58:39;;;;;;;73.20;39.63;;;24.30;50.80;;;;;;7694745;22;83987;-51
2022/11/13 11:01:58;;;;;;;74.45;39.92;;;24.30;51.50;;;;;;7694636;22;87091;-58
2022/11/13 11:05:18;;;;;;;77.15;40.55;;;24.30;52.00;;;;;;7708454;22;83930;-57
2022/11/13 11:08:37;;;;;;;78.00;41.03;;;24.30;52.30;;;;;;7703904;22;83162;-58
2022/11/13 11:15:33;;;;;;;72.05;38.53;;;24.30;53.20;;;;;;7682798;22;83791;-58
2022/11/13 11:18:52;;;;;;;76.32;39.45;;;24.30;53.40;;;;;;7700323;22;83626;-53
2022/11/13 11:22:11;;;;;;;82.10;39.05;;;24.30;53.70;;;;;;7699880;22;83122;-56
2022/11/13 11:25:31;;;;;;;77.47;38.63;;;24.30;54.20;;;;;;7693889;22;83155;-55
2022/11/13 11:28:50;;;;;;;75.20;36.50;;;24.30;53.70;;;;;;7691940;22;87376;-60
2022/11/13 11:32:09;;;;;;;71.25;35.95;;;24.30;53.80;;;;;;7692167;22;83863;-61
2022/11/13 11:35:28;;;;;;;71.35;36.22;;;24.30;53.80;;;;;;7697600;22;82773;-61
2022/11/13 11:38:47;;;;;;;65.28;33.22;;;24.30;54.20;;;;;;7704037;22;85101;-61
2022/11/13 11:42:06;;;;;;;59.85;31.38;;;24.30;53.60;;;;;;7705139;22;83086;-62
2022/11/13 11:45:25;;;;;;;49.15;25.88;;;24.30;54.10;;;;;;7703958;22;83143;-62
2022/11/13 11:48:44;;;;;;;39.75;21.05;;;24.10;54.60;;;;;;7704961;22;84511;-62
2022/11/13 11:52:03;;;;;;;32.90;17.85;;;24.00;55.20;;;;;;7711411;22;84524;-73
2022/11/13 11:55:22;;;;;;;28.63;15.57;;;23.90;55.80;;;;;;7701326;22;84291;-63
2022/11/13 11:58:41;;;;;;;27.73;13.88;;;23.90;56.00;;;;;;7721516;22;83095;-66
2022/11/13 12:02:00;;;;;;;23.70;13.85;;;23.90;55.90;;;;;;7711373;22;87549;-64
2022/11/13 12:05:19;;;;;;;24.23;13.15;;;23.90;56.40;;;;;;7712057;22;83869;-62
2022/11/13 12:08:38;;;;;;;26.25;12.85;;;23.80;56.60;;;;;;7709938;22;83754;-62
2022/11/13 12:11:57;;;;;;;20.50;13.23;;;23.80;56.80;;;;;;7711507;22;84354;-65
2022/11/13 12:15:16;;;;;;;25.52;12.98;;;23.90;57.10;;;;;;7710956;22;82888;-63
2022/11/13 12:18:35;;;;;;;20.45;13.30;;;24.00;56.90;;;;;;7709210;22;83058;-65
2022/11/13 12:21:54;;;;;;;21.83;14.13;;;24.00;57.10;;;;;;7707988;22;83194;-60
2022/11/13 12:25:13;;;;;;;28.98;16.08;;;24.00;57.30;;;;;;7702247;22;84920;-60
2022/11/13 12:28:32;;;;;;;26.27;15.63;;;23.90;57.50;;;;;;7697428;22;83336;-61
2022/11/13 12:31:51;;;;;;;27.88;14.80;;;24.00;57.30;;;;;;7684971;22;87105;-62
2022/11/13 12:35:10;;;;;;;25.92;14.00;;;23.90;57.30;;;;;;7701380;22;83162;-62
2022/11/13 12:38:29;;;;;;;22.90;12.02;;;24.00;57.30;;;;;;7702398;22;84457;-63
2022/11/13 12:41:48;;;;;;;18.30;10.75;;;23.90;57.00;;;;;;7698597;22;83830;-63
2022/11/13 12:45:07;;;;;;;18.75;11.02;;;24.00;56.90;;;;;;7703812;22;85035;-63
2022/11/13 12:48:26;;;;;;;18.67;9.30;;;24.00;56.80;;;;;;7712027;22;84677;-64
2022/11/13 12:51:45;;;;;;;14.10;8.38;;;23.90;56.20;;;;;;7712615;22;82578;-62
2022/11/13 12:55:04;;;;;;;15.15;8.68;;;23.90;55.90;;;;;;7714722;22;80389;-66
2022/11/13 13:40:07;;;;;;;12.55;5.97;;;23.80;53.70;;;;;;7705481;22;82190;-61
2022/11/13 13:43:26;;;;;;;9.77;6.38;;;23.80;53.80;;;;;;7710041;22;80619;-63
2022/11/13 13:46:45;;;;;;;14.27;5.90;;;23.80;54.00;;;;;;7709909;22;84461;-62
2022/11/13 13:50:04;;;;;;;8.95;5.30;;;23.80;53.90;;;;;;7711740;22;80306;-63
2022/11/13 13:53:23;;;;;;;9.07;5.53;;;23.70;53.90;;;;;;7708929;22;81366;-61
2022/11/13 13:56:42;;;;;;;10.30;5.53;;;23.80;53.90;;;;;;7711030;22;80619;-62
2022/11/13 14:00:01;;;;;;;8.38;6.05;;;23.80;53.90;;;;;;7713703;22;80486;-62
2022/11/13 14:03:20;;;;;;;7.07;4.85;;;23.80;53.70;;;;;;7709676;22;80357;-61
2022/11/13 14:06:39;;;;;;;7.28;4.75;;;23.80;53.40;;;;;;7712001;22;80063;-63
2022/11/13 14:09:59;;;;;;;7.00;4.65;;;23.80;53.40;;;;;;7708166;22;81026;-62
2022/11/13 14:13:18;;;;;;;7.60;5.25;;;23.70;53.30;;;;;;7710340;22;80913;-63
2022/11/13 14:16:37;;;;;;;6.55;4.65;;;23.70;53.10;;;;;;7715744;22;80320;-70
2022/11/13 14:19:59;;;;;;;6.38;4.78;;;23.70;53.20;;;;;;7708921;22;84670;-64
2022/11/13 14:23:18;;;;;;;7.13;4.93;;;23.70;53.00;;;;;;7706789;22;81423;-65
2022/11/13 14:26:37;;;;;;;5.53;4.50;;;23.70;52.90;;;;;;7713117;22;81572;-64
2022/11/13 14:29:56;;;;;;;4.50;3.85;;;23.70;52.60;;;;;;7711265;22;79927;-62
2022/11/13 14:33:15;;;;;;;4.47;3.83;;;23.70;52.70;;;;;;7709986;22;80384;-60
2022/11/13 14:36:34;;;;;;;5.13;3.90;;;23.70;52.60;;;;;;7710684;22;81649;-59
2022/11/13 14:39:53;;;;;;;7.10;4.68;;;23.70;52.70;;;;;;7710965;22;79848;-59
2022/11/13 14:43:13;;;;;;;6.63;4.63;;;23.60;52.40;;;;;;7712523;22;80862;-59
2022/11/13 14:46:31;;;;;;;16.92;8.52;;;23.60;52.40;;;;;;7718044;22;81088;-58
2022/11/13 14:49:50;;;;;;;78.65;40.33;;;23.60;52.30;;;;;;7717863;22;84693;-58
2022/11/13 14:53:10;;;;;;;99.13;52.63;;;23.80;51.90;;;;;;7709572;22;82701;-64
2022/11/13 14:56:29;;;;;;;213.68;106.70;;;23.90;51.70;;;;;;7713837;22;83662;-66
2022/11/13 14:59:48;;;;;;;260.90;129.57;;;24.00;51.60;;;;;;7711027;22;85464;-66
2022/11/13 15:03:07;;;;;;;363.15;189.50;;;24.00;51.60;;;;;;7710927;22;85250;-62
2022/11/13 15:06:26;;;;;;;400.67;204.07;;;24.00;51.60;;;;;;7705213;22;85445;-63
2022/11/13 15:09:45;;;;;;;381.15;188.40;;;24.00;51.40;;;;;;7708409;22;85936;-57
2022/11/13 15:13:04;;;;;;;401.25;198.85;;;24.00;51.70;;;;;;7702988;22;85116;-56
2022/11/13 15:16:23;;;;;;;419.08;214.00;;;24.10;51.40;;;;;;7704131;22;85855;-58
2022/11/13 15:19:42;;;;;;;488.27;257.42;;;24.10;51.60;;;;;;7708731;22;86691;-58
2022/11/13 15:23:01;;;;;;;467.40;240.38;;;24.10;51.10;;;;;;7705243;22;89342;-58
2022/11/13 15:26:20;;;;;;;366.40;190.25;;;24.10;51.10;;;;;;7707907;22;85589;-58
2022/11/13 15:29:39;;;;;;;325.33;162.00;;;24.10;50.90;;;;;;7709305;22;86182;-57
2022/11/13 15:32:58;;;;;;;276.13;143.18;;;24.10;50.70;;;;;;7710866;22;86114;-57
2022/11/13 15:36:17;;;;;;;247.77;130.35;;;24.20;50.30;;;;;;7699663;22;85614;-58
2022/11/13 15:39:36;;;;;;;230.13;118.63;;;24.20;50.30;;;;;;7703926;22;85093;-59
2022/11/13 15:42:56;;;;;;;222.98;116.53;;;24.20;50.00;;;;;;7695878;22;87006;-54
2022/11/13 15:46:16;;;;;;;197.52;103.75;;;24.20;50.00;;;;;;7692964;22;87104;-56
2022/11/13 15:49:35;;;;;;;180.90;98.03;;;24.20;49.80;;;;;;7702716;22;86556;-56
2022/11/13 15:52:54;;;;;;;163.95;88.18;;;24.20;49.60;;;;;;7706730;22;89608;-56
2022/11/13 15:56:13;;;;;;;159.60;81.07;;;24.20;49.50;;;;;;7698499;22;83296;-58
2022/11/13 15:59:32;;;;;;;145.15;79.00;;;24.20;49.10;;;;;;7699863;22;84087;-56
2022/11/13 16:02:53;;;;;;;136.15;73.60;;;24.20;49.10;;;;;;7705011;22;82798;-56
2022/11/13 16:06:12;;;;;;;119.20;67.40;;;24.30;48.90;;;;;;7701130;22;83803;-61
2022/11/13 16:09:31;;;;;;;112.45;61.65;;;24.20;48.90;;;;;;7707020;22;82585;-61
2022/11/13 16:12:51;;;;;;;108.90;58.00;;;24.20;49.00;;;;;;7688352;22;83200;-61
2022/11/13 16:16:10;;;;;;;108.90;55.15;;;24.10;48.70;;;;;;7710420;22;83097;-61
2022/11/13 16:19:29;;;;;;;98.25;51.28;;;24.10;48.70;;;;;;7707152;22;83677;-60
2022/11/13 16:22:48;;;;;;;87.53;50.35;;;24.10;48.70;;;;;;7712794;22;86321;-61
2022/11/13 16:26:08;;;;;;;89.88;48.42;;;24.10;49.50;;;;;;7714389;22;84175;-63
2022/11/13 16:29:27;;;;;;;82.43;45.15;;;24.10;50.30;;;;;;7714506;22;83312;-61
2022/11/13 16:32:46;;;;;;;83.30;44.95;;;24.10;51.10;;;;;;7712875;22;82627;-62
2022/11/13 16:36:05;;;;;;;80.95;45.95;;;24.10;52.20;;;;;;7707884;22;82857;-60
2022/11/13 16:39:24;;;;;;;84.70;44.92;;;24.10;53.50;;;;;;7713236;22;84606;-61
2022/11/13 16:42:43;;;;;;;80.90;43.72;;;24.00;54.90;;;;;;7710051;22;82769;-61
2022/11/13 16:46:02;;;;;;;80.95;43.05;;;24.00;54.90;;;;;;7704643;22;83202;-59
2022/11/13 16:49:21;;;;;;;68.97;38.58;;;24.00;55.40;;;;;;7704676;22;83350;-61
2022/11/13 16:52:40;;;;;;;68.75;40.08;;;24.00;55.20;;;;;;7706801;22;83055;-63
2022/11/13 16:55:59;;;;;;;67.45;38.03;;;24.00;55.50;;;;;;7704592;22;87162;-64
2022/11/13 16:59:19;;;;;;;61.60;35.83;;;24.00;55.80;;;;;;7712728;22;83728;-64
2022/11/13 17:02:38;;;;;;;59.60;33.88;;;24.00;55.90;;;;;;7708136;22;83093;-65
2022/11/13 17:05:57;;;;;;;62.78;34.97;;;23.90;56.30;;;;;;7712051;22;83083;-64
2022/11/13 17:09:16;;;;;;;57.63;32.65;;;23.90;57.10;;;;;;7711292;22;83160;-63
2022/11/13 17:12:35;;;;;;;50.88;32.65;;;23.90;56.90;;;;;;7710095;22;82700;-63
2022/11/13 17:15:54;;;;;;;52.33;30.90;;;23.90;56.80;;;;;;7709332;22;82908;-63
2022/11/13 17:19:13;;;;;;;51.20;29.00;;;23.90;56.90;;;;;;7711452;22;83069;-64
2022/11/13 17:22:32;;;;;;;43.90;26.17;;;23.80;57.10;;;;;;7697559;22;84037;-59
2022/11/13 17:25:51;;;;;;;43.40;26.77;;;23.80;57.30;;;;;;7706633;22;87476;-60
2022/11/13 17:29:10;;;;;;;42.13;26.52;;;23.90;57.20;;;;;;7710380;22;82884;-60
2022/11/13 17:32:29;;;;;;;40.35;26.05;;;23.90;58.00;;;;;;7709498;22;83338;-58
2022/11/13 17:35:48;;;;;;;41.47;25.58;;;24.00;57.80;;;;;;7712580;22;83545;-58